createdAt,value
2023-04-02T00:01:38.829Z,6.60
2023-04-02T00:05:55.299Z,6.60
2023-04-02T00:10:00.560Z,6.60
2023-04-02T00:14:05.223Z,6.50
2023-04-02T00:18:10.947Z,6.50
2023-04-02T00:22:19.036Z,6.40
2023-04-02T00:26:36.725Z,6.30
2023-04-02T00:30:46.728Z,6.30
2023-04-02T00:34:50.451Z,6.30
2023-04-02T00:38:56.273Z,6.30
2023-04-02T00:43:04.440Z,6.20
2023-04-02T00:47:15.423Z,6.20
2023-04-02T00:51:23.266Z,6.30
2023-04-02T00:55:32.049Z,6.20
2023-04-02T00:59:44.080Z,6.20
2023-04-02T01:03:58.264Z,6.20
2023-04-02T01:08:07.500Z,6.20
2023-04-02T01:12:29.394Z,6.20
2023-04-02T01:16:46.809Z,6.40
2023-04-02T01:21:21.965Z,6.30
2023-04-02T01:25:30.502Z,6.40
2023-04-02T01:29:39.306Z,6.40
2023-04-02T01:33:43.082Z,6.30
2023-04-02T01:37:53.720Z,6.30
2023-04-02T01:42:04.909Z,6.30
2023-04-02T01:46:28.568Z,6.30
2023-04-02T01:50:37.379Z,6.30
2023-04-02T01:54:41.368Z,6.30
2023-04-02T01:58:44.815Z,6.20
2023-04-02T02:02:51.562Z,6.10
2023-04-02T02:06:56.295Z,6.00
2023-04-02T02:11:01.300Z,6.00
2023-04-02T02:15:04.973Z,5.90
2023-04-02T02:19:21.930Z,5.70
2023-04-02T02:23:25.485Z,5.60
2023-04-02T02:27:48.595Z,5.40
2023-04-02T02:31:55.118Z,5.40
2023-04-02T02:36:01.832Z,5.20
2023-04-02T02:40:12.387Z,5.10
2023-04-02T02:44:20.777Z,5.00
2023-04-02T02:48:29.543Z,4.90
2023-04-02T02:52:38.219Z,4.80
2023-04-02T02:56:47.296Z,4.60
2023-04-02T03:00:51.313Z,4.40
2023-04-02T03:04:56.837Z,4.50
2023-04-02T03:09:06.417Z,4.40
2023-04-02T03:13:21.926Z,4.30
2023-04-02T03:17:32.989Z,4.30
2023-04-02T03:21:41.909Z,4.20
2023-04-02T03:25:53.813Z,4.30
2023-04-02T03:30:07.357Z,4.20
2023-04-02T03:34:15.465Z,4.20
2023-04-02T03:38:24.430Z,4.20
2023-04-02T03:42:31.409Z,4.10
2023-04-02T03:46:39.280Z,4.20
2023-04-02T03:50:47.583Z,4.20
2023-04-02T03:54:53.117Z,4.10
2023-04-02T03:59:12.270Z,4.30
2023-04-02T04:03:18.664Z,4.30
2023-04-02T04:07:32.333Z,4.40
2023-04-02T04:11:38.710Z,4.30
2023-04-02T04:15:50.161Z,4.30
2023-04-02T04:19:59.337Z,4.30
2023-04-02T04:24:05.982Z,4.30
2023-04-02T04:28:20.529Z,4.30
2023-04-02T04:32:33.409Z,4.40
2023-04-02T04:36:54.420Z,4.40
2023-04-02T04:41:02.145Z,4.40
2023-04-02T04:45:17.041Z,4.50
2023-04-02T04:49:26.572Z,4.50
2023-04-02T04:53:31.857Z,4.60
2023-04-02T04:57:37.261Z,4.60
2023-04-02T05:01:46.886Z,4.70
2023-04-02T05:05:52.078Z,4.60
2023-04-02T05:10:01.464Z,4.70
2023-04-02T05:14:08.996Z,4.70
2023-04-02T05:18:23.000Z,4.80
2023-04-02T05:22:38.909Z,4.90
2023-04-02T05:26:47.239Z,5.00
2023-04-02T05:30:55.557Z,5.10
2023-04-02T05:35:00.110Z,5.20
2023-04-02T05:39:09.677Z,5.40
2023-04-02T05:43:18.708Z,5.40
2023-04-02T05:47:26.603Z,5.60
2023-04-02T05:51:37.815Z,5.70
2023-04-02T05:55:54.635Z,5.90
2023-04-02T06:00:02.070Z,6.10
2023-04-02T06:04:13.903Z,6.20
2023-04-02T06:08:21.684Z,6.40
2023-04-02T06:12:32.184Z,6.50
2023-04-02T06:16:38.037Z,6.60
2023-04-02T06:20:41.887Z,6.80
2023-04-02T06:24:46.831Z,7.00
2023-04-02T06:28:57.208Z,7.10
2023-04-02T06:33:00.778Z,7.40
2023-04-02T06:37:13.760Z,7.60
2023-04-02T06:41:21.578Z,7.80
2023-04-02T06:45:30.448Z,8.10
2023-04-02T06:49:40.956Z,8.30
2023-04-02T06:53:46.364Z,8.50
2023-04-02T06:57:50.422Z,8.90
2023-04-02T07:01:59.307Z,9.30
2023-04-02T07:06:04.621Z,9.70
2023-04-02T07:10:10.648Z,10.00
2023-04-02T07:14:14.535Z,10.40
2023-04-02T07:18:30.838Z,10.50
2023-04-02T07:22:34.222Z,10.70
2023-04-02T07:26:37.604Z,10.90
2023-04-02T07:30:41.176Z,11.10
2023-04-02T07:34:46.537Z,11.30
2023-04-02T07:38:50.260Z,11.50
2023-04-02T07:42:53.747Z,11.70
2023-04-02T07:46:57.135Z,11.80
2023-04-02T07:51:03.353Z,11.60
2023-04-02T07:55:08.111Z,11.50
2023-04-02T07:59:11.902Z,11.50
2023-04-02T08:03:15.290Z,11.60
2023-04-02T08:07:22.023Z,12.10
2023-04-02T08:11:25.750Z,12.30
2023-04-02T08:15:29.001Z,12.40
2023-04-02T08:19:36.932Z,12.80
2023-04-02T08:23:49.203Z,13.20
2023-04-02T08:27:52.624Z,13.60
2023-04-02T08:31:56.102Z,13.60
2023-04-02T08:35:59.580Z,13.40
2023-04-02T08:40:04.812Z,13.40
2023-04-02T08:44:28.910Z,13.40
2023-04-02T08:48:34.907Z,13.40
2023-04-02T08:52:40.293Z,13.20
2023-04-02T08:56:53.643Z,13.50
2023-04-02T09:00:59.072Z,13.90
2023-04-02T09:05:06.378Z,14.20
2023-04-02T09:09:10.279Z,14.80
2023-04-02T09:13:23.427Z,15.20
2023-04-02T09:17:29.209Z,15.60
2023-04-02T09:21:38.444Z,15.50
2023-04-02T09:25:57.463Z,16.40
2023-04-02T09:30:23.369Z,16.50
2023-04-02T09:34:31.863Z,16.40
2023-04-02T09:38:35.629Z,16.30
2023-04-02T09:42:39.102Z,16.90
2023-04-02T09:46:53.204Z,17.80
2023-04-02T09:51:07.620Z,18.40
2023-04-02T09:55:24.434Z,17.90
2023-04-02T09:59:27.930Z,17.80
2023-04-02T10:03:34.602Z,17.70
2023-04-02T10:07:41.496Z,18.10
2023-04-02T10:11:46.637Z,17.90
2023-04-02T10:15:54.672Z,18.50
2023-04-02T10:20:07.027Z,19.00
2023-04-02T10:24:13.374Z,19.50
2023-04-02T10:28:30.526Z,21.30
2023-04-02T10:32:38.970Z,21.40
2023-04-02T10:36:55.485Z,23.60
2023-04-02T10:41:02.860Z,22.60
2023-04-02T10:45:21.111Z,23.90
2023-04-02T10:49:32.888Z,25.00
2023-04-02T10:53:44.782Z,25.10
2023-04-02T10:57:48.359Z,24.70
2023-04-02T11:01:54.872Z,22.70
2023-04-02T11:06:00.812Z,21.70
2023-04-02T11:10:07.154Z,20.20
2023-04-02T11:14:16.744Z,19.10
2023-04-02T11:18:34.254Z,18.40
2023-04-02T11:22:37.613Z,17.70
2023-04-02T11:26:46.357Z,17.40
2023-04-02T11:30:50.587Z,17.30
2023-04-02T11:35:31.460Z,17.40
2023-04-02T11:39:55.412Z,17.60
2023-04-02T11:44:07.045Z,18.10
2023-04-02T11:48:36.326Z,18.40
2023-04-02T11:52:54.111Z,19.20
2023-04-02T11:57:05.216Z,19.70
2023-04-02T12:01:44.442Z,20.90
2023-04-02T12:05:55.238Z,20.00
2023-04-02T12:10:00.987Z,18.50
2023-04-02T12:14:24.235Z,18.10
2023-04-02T12:18:28.998Z,17.70
2023-04-02T12:22:34.096Z,17.50
2023-04-02T12:26:39.053Z,17.20
2023-04-02T12:30:43.194Z,17.50
2023-04-02T12:34:48.360Z,18.10
2023-04-02T12:38:53.595Z,19.10
2023-04-02T12:42:58.093Z,19.90
2023-04-02T12:47:01.983Z,18.90
2023-04-02T12:51:07.122Z,18.50
2023-04-02T12:55:20.373Z,18.40
2023-04-02T12:59:36.083Z,18.20
2023-04-02T13:03:39.519Z,18.20
2023-04-02T13:07:49.102Z,18.50
2023-04-02T13:11:52.785Z,19.30
2023-04-02T13:16:05.563Z,18.00
2023-04-02T13:20:33.188Z,16.60
2023-04-02T13:24:38.641Z,15.70
2023-04-02T13:28:42.946Z,14.80
2023-04-02T13:32:46.718Z,14.50
2023-04-02T13:36:50.706Z,14.80
2023-04-02T13:40:55.424Z,15.10
2023-04-02T13:44:59.648Z,15.50
2023-04-02T13:49:03.736Z,16.10
2023-04-02T13:53:11.246Z,16.60
2023-04-02T13:57:16.844Z,16.70
2023-04-02T14:01:25.396Z,16.50
2023-04-02T14:05:38.603Z,16.20
2023-04-02T14:09:55.344Z,16.10
2023-04-02T14:14:24.296Z,16.00
2023-04-02T14:18:43.544Z,15.70
2023-04-02T14:23:08.711Z,15.70
2023-04-02T14:27:24.120Z,15.10
2023-04-02T14:31:36.014Z,15.10
2023-04-02T14:35:45.668Z,15.30
2023-04-02T14:40:01.671Z,15.30
2023-04-02T14:44:07.589Z,15.10
2023-04-02T14:48:27.808Z,15.10
2023-04-02T14:52:35.015Z,15.60
2023-04-02T14:56:43.490Z,16.30
2023-04-02T15:00:55.974Z,16.00
2023-04-02T15:05:07.190Z,15.50
2023-04-02T15:09:18.036Z,15.00
2023-04-02T15:13:26.551Z,15.00
2023-04-02T15:17:31.505Z,14.90
2023-04-02T15:22:14.716Z,14.80
2023-04-02T15:26:27.596Z,14.80
2023-04-02T15:30:37.617Z,14.60
2023-04-02T15:34:46.388Z,14.40
2023-04-02T15:39:01.615Z,14.40
2023-04-02T15:43:18.094Z,14.30
2023-04-02T15:47:35.006Z,14.00
2023-04-02T15:51:58.960Z,13.80
2023-04-02T15:56:16.319Z,13.70
2023-04-02T16:00:32.086Z,13.50
2023-04-02T16:04:49.138Z,13.60
2023-04-02T16:09:12.027Z,13.50
2023-04-02T16:13:30.554Z,13.40
2023-04-02T16:17:43.394Z,13.40
2023-04-02T16:21:53.352Z,13.40
2023-04-02T16:26:05.105Z,13.30
2023-04-02T16:30:36.331Z,13.10
2023-04-02T16:34:49.476Z,12.90
2023-04-02T16:39:02.053Z,12.70
2023-04-02T16:43:17.379Z,12.60
2023-04-02T16:47:56.835Z,12.50
2023-04-02T16:52:17.009Z,12.40
2023-04-02T16:56:42.669Z,12.20
2023-04-02T17:00:53.514Z,12.00
2023-04-02T17:05:24.252Z,12.00
2023-04-02T17:09:37.425Z,11.90
2023-04-02T17:13:43.382Z,11.80
2023-04-02T17:17:48.450Z,11.80
2023-04-02T17:22:03.344Z,11.60
2023-04-02T17:26:12.646Z,11.60
2023-04-02T17:30:20.664Z,11.50
2023-04-02T17:34:26.635Z,11.40
2023-04-02T17:38:39.617Z,11.30
2023-04-02T17:42:53.640Z,11.20
2023-04-02T17:47:07.065Z,11.10
2023-04-02T17:51:21.792Z,11.00
2023-04-02T17:55:41.715Z,10.90
2023-04-02T18:00:05.873Z,10.80
2023-04-02T18:04:23.622Z,10.80
2023-04-02T18:08:41.704Z,10.70
2023-04-02T18:12:59.863Z,10.60
2023-04-02T18:17:19.363Z,10.60
2023-04-02T18:21:34.103Z,10.50
2023-04-02T18:25:55.344Z,10.40
2023-04-02T18:30:15.076Z,10.20
2023-04-02T18:34:49.422Z,10.20
2023-04-02T18:39:06.818Z,10.10
2023-04-02T18:43:28.205Z,10.10
2023-04-02T18:47:45.795Z,10.10
2023-04-02T18:52:01.314Z,10.10
2023-04-02T18:56:11.874Z,10.00
2023-04-02T19:00:25.946Z,10.00
2023-04-02T19:04:35.938Z,10.00
2023-04-02T19:08:47.130Z,10.10
2023-04-02T19:12:55.504Z,10.00
2023-04-02T19:17:11.621Z,9.90
2023-04-02T19:21:29.932Z,9.90
2023-04-02T19:25:48.369Z,9.90
2023-04-02T19:30:04.941Z,9.80
2023-04-02T19:34:31.028Z,9.70
2023-04-02T19:38:54.264Z,9.70
2023-04-02T19:43:10.460Z,9.60
2023-04-02T19:47:19.508Z,9.50
2023-04-02T19:51:26.090Z,9.50
2023-04-02T19:55:32.496Z,9.40
2023-04-02T19:59:42.480Z,9.30
2023-04-02T20:03:47.684Z,9.20
2023-04-02T20:07:52.799Z,9.10
2023-04-02T20:12:00.993Z,9.10
2023-04-02T20:16:08.495Z,8.90
2023-04-02T20:20:16.947Z,8.70
2023-04-02T20:24:23.112Z,8.70
2023-04-02T20:28:30.937Z,8.80
2023-04-02T20:32:37.764Z,8.80
2023-04-02T20:36:45.261Z,8.80
2023-04-02T20:40:56.377Z,8.90
2023-04-02T20:45:01.465Z,8.90
2023-04-02T20:49:06.433Z,8.80
2023-04-02T20:53:09.960Z,8.80
2023-04-02T20:57:13.815Z,8.70
2023-04-02T21:01:22.253Z,8.60
2023-04-02T21:05:25.722Z,8.60
2023-04-02T21:09:29.108Z,8.40
2023-04-02T21:13:33.321Z,8.30
2023-04-02T21:17:38.015Z,8.20
2023-04-02T21:21:44.243Z,8.10
2023-04-02T21:25:56.655Z,8.10
2023-04-02T21:29:59.891Z,8.00
2023-04-02T21:34:06.069Z,7.80
2023-04-02T21:38:09.447Z,7.60
2023-04-02T21:42:13.924Z,7.50
2023-04-02T21:46:18.428Z,7.40
2023-04-02T21:50:23.016Z,7.30
2023-04-02T21:54:26.364Z,7.20
2023-04-02T21:58:29.748Z,7.10
2023-04-02T22:02:33.061Z,6.90
2023-04-02T22:06:41.099Z,6.70
2023-04-02T22:10:44.393Z,6.50
2023-04-02T22:14:47.742Z,6.30
2023-04-02T22:18:52.508Z,6.30
2023-04-02T22:22:57.137Z,6.10
2023-04-02T22:27:00.797Z,6.00
2023-04-02T22:31:06.659Z,5.70
2023-04-02T22:35:10.911Z,5.50
2023-04-02T22:39:16.918Z,5.40
2023-04-02T22:43:20.286Z,5.10
2023-04-02T22:47:23.552Z,4.90
2023-04-02T22:51:28.032Z,4.70
2023-04-02T22:55:33.158Z,4.50
2023-04-02T22:59:36.559Z,4.50
2023-04-02T23:03:40.094Z,4.50
2023-04-02T23:07:43.514Z,4.50
2023-04-02T23:11:48.499Z,4.80
2023-04-02T23:15:51.893Z,5.00
2023-04-02T23:19:55.195Z,4.90
2023-04-02T23:23:58.538Z,4.90
2023-04-02T23:28:03.197Z,4.90
2023-04-02T23:32:07.016Z,4.80
2023-04-02T23:36:11.774Z,4.60
2023-04-02T23:40:15.168Z,4.50
2023-04-02T23:44:20.089Z,4.40
2023-04-02T23:48:23.584Z,4.40
2023-04-02T23:52:26.854Z,4.20
2023-04-02T23:56:30.256Z,4.10
